sensor_id;sensor_type;location;lat;lon;timestamp;P1;durP1;ratioP1;P2;durP2;ratioP2
14251;SDS011;7210;51.502;10.722;2023-01-28T00:01:56;6.63;;;3.23;;
14251;SDS011;7210;51.502;10.722;2023-01-28T00:04:25;4.10;;;2.80;;
14251;SDS011;7210;51.502;10.722;2023-01-28T00:07:00;5.07;;;3.40;;
14251;SDS011;7210;51.502;10.722;2023-01-28T00:09:37;7.63;;;3.83;;
14251;SDS011;7210;51.502;10.722;2023-01-28T00:12:09;7.63;;;4.97;;
14251;SDS011;7210;51.502;10.722;2023-01-28T00:14:42;6.90;;;4.60;;
14251;SDS011;7210;51.502;10.722;2023-01-28T00:17:13;10.30;;;5.17;;
14251;SDS011;7210;51.502;10.722;2023-01-28T00:19:46;8.87;;;5.80;;
14251;SDS011;7210;51.502;10.722;2023-01-28T00:22:17;6.70;;;4.60;;
14251;SDS011;7210;51.502;10.722;2023-01-28T00:24:59;6.67;;;5.03;;
14251;SDS011;7210;51.502;10.722;2023-01-28T00:30:06;4.57;;;3.57;;
14251;SDS011;7210;51.502;10.722;2023-01-28T00:32:38;5.80;;;3.40;;
14251;SDS011;7210;51.502;10.722;2023-01-28T00:35:11;4.43;;;3.30;;
14251;SDS011;7210;51.502;10.722;2023-01-28T00:37:40;7.47;;;4.07;;
14251;SDS011;7210;51.502;10.722;2023-01-28T00:40:15;9.27;;;4.10;;
14251;SDS011;7210;51.502;10.722;2023-01-28T00:42:47;5.60;;;4.13;;
14251;SDS011;7210;51.502;10.722;2023-01-28T00:45:14;6.53;;;4.20;;
14251;SDS011;7210;51.502;10.722;2023-01-28T00:47:48;8.00;;;4.53;;
14251;SDS011;7210;51.502;10.722;2023-01-28T00:50:19;4.67;;;4.00;;
14251;SDS011;7210;51.502;10.722;2023-01-28T00:52:57;6.83;;;4.67;;
14251;SDS011;7210;51.502;10.722;2023-01-28T00:55:29;5.97;;;4.70;;
14251;SDS011;7210;51.502;10.722;2023-01-28T00:57:59;7.80;;;4.60;;
14251;SDS011;7210;51.502;10.722;2023-01-28T01:00:33;6.57;;;4.83;;
14251;SDS011;7210;51.502;10.722;2023-01-28T01:03:03;5.40;;;4.60;;
14251;SDS011;7210;51.502;10.722;2023-01-28T01:05:48;6.57;;;4.33;;
14251;SDS011;7210;51.502;10.722;2023-01-28T01:08:17;5.60;;;4.57;;
14251;SDS011;7210;51.502;10.722;2023-01-28T01:11:01;4.93;;;4.23;;
14251;SDS011;7210;51.502;10.722;2023-01-28T01:13:51;5.23;;;4.50;;
14251;SDS011;7210;51.502;10.722;2023-01-28T01:16:31;7.80;;;5.00;;
14251;SDS011;7210;51.502;10.722;2023-01-28T01:19:06;7.87;;;5.10;;
14251;SDS011;7210;51.502;10.722;2023-01-28T01:21:36;7.23;;;5.37;;
14251;SDS011;7210;51.502;10.722;2023-01-28T01:24:11;7.17;;;5.33;;
14251;SDS011;7210;51.502;10.722;2023-01-28T01:26:41;6.97;;;5.40;;
14251;SDS011;7210;51.502;10.722;2023-01-28T01:29:14;4.87;;;4.20;;
14251;SDS011;7210;51.502;10.722;2023-01-28T01:31:59;5.80;;;4.60;;
14251;SDS011;7210;51.502;10.722;2023-01-28T01:34:29;6.67;;;4.70;;
14251;SDS011;7210;51.502;10.722;2023-01-28T01:37:03;5.60;;;4.60;;
14251;SDS011;7210;51.502;10.722;2023-01-28T01:39:34;7.53;;;4.40;;
14251;SDS011;7210;51.502;10.722;2023-01-28T01:42:11;6.40;;;4.77;;
14251;SDS011;7210;51.502;10.722;2023-01-28T01:44:58;7.73;;;5.10;;
14251;SDS011;7210;51.502;10.722;2023-01-28T01:47:58;5.17;;;4.20;;
14251;SDS011;7210;51.502;10.722;2023-01-28T01:50:38;5.13;;;4.23;;
14251;SDS011;7210;51.502;10.722;2023-01-28T01:53:24;6.00;;;4.03;;
14251;SDS011;7210;51.502;10.722;2023-01-28T01:56:08;5.83;;;4.10;;
14251;SDS011;7210;51.502;10.722;2023-01-28T01:59:04;4.83;;;4.07;;
14251;SDS011;7210;51.502;10.722;2023-01-28T02:01:54;5.70;;;3.97;;
14251;SDS011;7210;51.502;10.722;2023-01-28T02:04:29;4.77;;;3.73;;
14251;SDS011;7210;51.502;10.722;2023-01-28T02:07:12;7.23;;;3.87;;
14251;SDS011;7210;51.502;10.722;2023-01-28T02:09:50;7.03;;;3.90;;
14251;SDS011;7210;51.502;10.722;2023-01-28T02:12:30;4.63;;;4.00;;
14251;SDS011;7210;51.502;10.722;2023-01-28T02:15:15;5.07;;;3.90;;
14251;SDS011;7210;51.502;10.722;2023-01-28T02:17:51;5.97;;;3.70;;
14251;SDS011;7210;51.502;10.722;2023-01-28T02:20:24;4.23;;;3.43;;
14251;SDS011;7210;51.502;10.722;2023-01-28T02:23:14;5.93;;;3.90;;
14251;SDS011;7210;51.502;10.722;2023-01-28T02:29:24;5.90;;;3.53;;
14251;SDS011;7210;51.502;10.722;2023-01-28T02:32:02;4.63;;;3.40;;
14251;SDS011;7210;51.502;10.722;2023-01-28T02:34:43;3.40;;;3.10;;
14251;SDS011;7210;51.502;10.722;2023-01-28T02:37:24;6.20;;;3.40;;
14251;SDS011;7210;51.502;10.722;2023-01-28T02:40:33;7.53;;;3.80;;
14251;SDS011;7210;51.502;10.722;2023-01-28T02:43:34;4.23;;;3.83;;
14251;SDS011;7210;51.502;10.722;2023-01-28T02:49:25;4.80;;;3.13;;
14251;SDS011;7210;51.502;10.722;2023-01-28T02:52:23;4.23;;;3.27;;
14251;SDS011;7210;51.502;10.722;2023-01-28T02:55:51;5.77;;;3.77;;
14251;SDS011;7210;51.502;10.722;2023-01-28T02:58:39;4.23;;;3.23;;
14251;SDS011;7210;51.502;10.722;2023-01-28T03:01:29;5.57;;;3.00;;
14251;SDS011;7210;51.502;10.722;2023-01-28T03:04:13;4.40;;;3.70;;
14251;SDS011;7210;51.502;10.722;2023-01-28T03:06:54;6.17;;;3.93;;
14251;SDS011;7210;51.502;10.722;2023-01-28T03:09:32;6.70;;;3.43;;
14251;SDS011;7210;51.502;10.722;2023-01-28T03:15:02;4.80;;;3.60;;
14251;SDS011;7210;51.502;10.722;2023-01-28T03:17:59;5.77;;;3.80;;
14251;SDS011;7210;51.502;10.722;2023-01-28T03:21:01;6.00;;;3.80;;
14251;SDS011;7210;51.502;10.722;2023-01-28T03:23:54;4.90;;;3.57;;
14251;SDS011;7210;51.502;10.722;2023-01-28T03:26:52;5.70;;;3.80;;
14251;SDS011;7210;51.502;10.722;2023-01-28T03:29:59;4.17;;;3.47;;
14251;SDS011;7210;51.502;10.722;2023-01-28T03:32:53;4.20;;;3.80;;
14251;SDS011;7210;51.502;10.722;2023-01-28T03:35:46;4.27;;;3.57;;
14251;SDS011;7210;51.502;10.722;2023-01-28T03:38:33;7.27;;;4.70;;
14251;SDS011;7210;51.502;10.722;2023-01-28T03:41:19;6.20;;;4.30;;
14251;SDS011;7210;51.502;10.722;2023-01-28T03:43:51;4.67;;;4.13;;
14251;SDS011;7210;51.502;10.722;2023-01-28T03:46:23;6.07;;;4.60;;
14251;SDS011;7210;51.502;10.722;2023-01-28T03:48:59;4.47;;;4.00;;
14251;SDS011;7210;51.502;10.722;2023-01-28T03:51:31;4.97;;;4.10;;
14251;SDS011;7210;51.502;10.722;2023-01-28T03:54:08;6.93;;;5.03;;
14251;SDS011;7210;51.502;10.722;2023-01-28T03:56:49;6.27;;;4.93;;
14251;SDS011;7210;51.502;10.722;2023-01-28T03:59:18;5.17;;;4.67;;
14251;SDS011;7210;51.502;10.722;2023-01-28T04:01:53;6.17;;;4.77;;
14251;SDS011;7210;51.502;10.722;2023-01-28T04:04:34;4.77;;;4.37;;
14251;SDS011;7210;51.502;10.722;2023-01-28T04:07:08;7.73;;;5.43;;
14251;SDS011;7210;51.502;10.722;2023-01-28T04:09:58;6.87;;;5.63;;
14251;SDS011;7210;51.502;10.722;2023-01-28T04:12:39;8.03;;;5.30;;
14251;SDS011;7210;51.502;10.722;2023-01-28T04:15:10;5.97;;;5.37;;
14251;SDS011;7210;51.502;10.722;2023-01-28T04:17:43;6.10;;;5.37;;
14251;SDS011;7210;51.502;10.722;2023-01-28T04:20:28;8.33;;;5.77;;
14251;SDS011;7210;51.502;10.722;2023-01-28T04:23:04;5.67;;;5.07;;
14251;SDS011;7210;51.502;10.722;2023-01-28T04:25:39;6.00;;;5.40;;
14251;SDS011;7210;51.502;10.722;2023-01-28T04:28:23;6.57;;;5.07;;
14251;SDS011;7210;51.502;10.722;2023-01-28T04:31:02;7.87;;;5.57;;
14251;SDS011;7210;51.502;10.722;2023-01-28T04:34:05;6.40;;;5.13;;
14251;SDS011;7210;51.502;10.722;2023-01-28T04:36:55;5.27;;;4.77;;
14251;SDS011;7210;51.502;10.722;2023-01-28T04:40:07;6.27;;;5.53;;
14251;SDS011;7210;51.502;10.722;2023-01-28T04:42:41;6.97;;;5.37;;
14251;SDS011;7210;51.502;10.722;2023-01-28T04:45:37;6.60;;;4.87;;
14251;SDS011;7210;51.502;10.722;2023-01-28T04:48:34;5.90;;;5.10;;
14251;SDS011;7210;51.502;10.722;2023-01-28T04:51:29;8.30;;;5.40;;
14251;SDS011;7210;51.502;10.722;2023-01-28T04:54:16;6.63;;;5.93;;
14251;SDS011;7210;51.502;10.722;2023-01-28T04:56:50;6.17;;;5.23;;
14251;SDS011;7210;51.502;10.722;2023-01-28T04:59:27;6.77;;;5.63;;
14251;SDS011;7210;51.502;10.722;2023-01-28T05:02:01;7.20;;;5.37;;
14251;SDS011;7210;51.502;10.722;2023-01-28T05:04:32;6.93;;;6.23;;
14251;SDS011;7210;51.502;10.722;2023-01-28T05:07:11;7.30;;;6.40;;
14251;SDS011;7210;51.502;10.722;2023-01-28T05:09:41;7.47;;;6.63;;
14251;SDS011;7210;51.502;10.722;2023-01-28T05:12:10;6.97;;;5.57;;
14251;SDS011;7210;51.502;10.722;2023-01-28T05:14:48;6.93;;;6.00;;
14251;SDS011;7210;51.502;10.722;2023-01-28T05:17:26;8.70;;;6.60;;
14251;SDS011;7210;51.502;10.722;2023-01-28T05:19:59;6.60;;;5.87;;
14251;SDS011;7210;51.502;10.722;2023-01-28T05:22:29;6.33;;;5.73;;
14251;SDS011;7210;51.502;10.722;2023-01-28T05:25:35;7.13;;;6.17;;
14251;SDS011;7210;51.502;10.722;2023-01-28T05:28:06;8.27;;;6.23;;
14251;SDS011;7210;51.502;10.722;2023-01-28T05:30:36;8.80;;;6.50;;
14251;SDS011;7210;51.502;10.722;2023-01-28T05:35:56;7.43;;;5.57;;
14251;SDS011;7210;51.502;10.722;2023-01-28T05:38:24;7.17;;;5.67;;
14251;SDS011;7210;51.502;10.722;2023-01-28T05:40:52;6.40;;;5.63;;
14251;SDS011;7210;51.502;10.722;2023-01-28T05:43:22;6.80;;;5.63;;
14251;SDS011;7210;51.502;10.722;2023-01-28T05:46:11;7.27;;;5.33;;
14251;SDS011;7210;51.502;10.722;2023-01-28T05:48:59;5.97;;;5.37;;
14251;SDS011;7210;51.502;10.722;2023-01-28T05:51:48;6.87;;;5.47;;
14251;SDS011;7210;51.502;10.722;2023-01-28T05:54:21;7.73;;;4.80;;
14251;SDS011;7210;51.502;10.722;2023-01-28T05:56:50;6.10;;;4.93;;
14251;SDS011;7210;51.502;10.722;2023-01-28T05:59:22;6.83;;;4.80;;
14251;SDS011;7210;51.502;10.722;2023-01-28T06:01:55;5.10;;;4.60;;
14251;SDS011;7210;51.502;10.722;2023-01-28T06:04:23;5.73;;;4.00;;
14251;SDS011;7210;51.502;10.722;2023-01-28T06:06:53;5.63;;;3.73;;
14251;SDS011;7210;51.502;10.722;2023-01-28T06:09:29;6.73;;;4.17;;
14251;SDS011;7210;51.502;10.722;2023-01-28T06:11:59;6.50;;;4.47;;
14251;SDS011;7210;51.502;10.722;2023-01-28T06:14:42;5.43;;;3.97;;
14251;SDS011;7210;51.502;10.722;2023-01-28T06:17:30;4.83;;;4.07;;
14251;SDS011;7210;51.502;10.722;2023-01-28T06:20:05;5.17;;;4.37;;
14251;SDS011;7210;51.502;10.722;2023-01-28T06:22:37;5.13;;;3.67;;
14251;SDS011;7210;51.502;10.722;2023-01-28T06:25:07;4.50;;;3.90;;
14251;SDS011;7210;51.502;10.722;2023-01-28T06:27:36;5.93;;;4.00;;
14251;SDS011;7210;51.502;10.722;2023-01-28T06:30:10;5.63;;;3.87;;
14251;SDS011;7210;51.502;10.722;2023-01-28T06:32:40;4.00;;;3.57;;
14251;SDS011;7210;51.502;10.722;2023-01-28T06:35:11;4.20;;;3.47;;
14251;SDS011;7210;51.502;10.722;2023-01-28T06:37:46;3.90;;;3.50;;
14251;SDS011;7210;51.502;10.722;2023-01-28T06:40:20;4.03;;;3.60;;
14251;SDS011;7210;51.502;10.722;2023-01-28T06:42:51;5.43;;;3.87;;
14251;SDS011;7210;51.502;10.722;2023-01-28T06:45:23;4.13;;;2.87;;
14251;SDS011;7210;51.502;10.722;2023-01-28T06:47:52;5.90;;;2.90;;
14251;SDS011;7210;51.502;10.722;2023-01-28T06:50:23;2.97;;;2.67;;
14251;SDS011;7210;51.502;10.722;2023-01-28T06:52:53;3.63;;;2.60;;
14251;SDS011;7210;51.502;10.722;2023-01-28T06:55:22;2.93;;;2.67;;
14251;SDS011;7210;51.502;10.722;2023-01-28T06:58:05;2.60;;;2.40;;
14251;SDS011;7210;51.502;10.722;2023-01-28T07:00:39;4.33;;;3.07;;
14251;SDS011;7210;51.502;10.722;2023-01-28T07:03:06;4.43;;;4.03;;
14251;SDS011;7210;51.502;10.722;2023-01-28T07:05:33;4.30;;;3.67;;
14251;SDS011;7210;51.502;10.722;2023-01-28T07:08:02;4.53;;;3.37;;
14251;SDS011;7210;51.502;10.722;2023-01-28T07:10:32;3.47;;;3.07;;
14251;SDS011;7210;51.502;10.722;2023-01-28T07:13:05;4.37;;;2.93;;
14251;SDS011;7210;51.502;10.722;2023-01-28T07:15:32;3.63;;;3.33;;
14251;SDS011;7210;51.502;10.722;2023-01-28T07:18:01;3.97;;;3.20;;
14251;SDS011;7210;51.502;10.722;2023-01-28T07:20:29;2.77;;;2.53;;
14251;SDS011;7210;51.502;10.722;2023-01-28T07:23:00;4.63;;;3.23;;
14251;SDS011;7210;51.502;10.722;2023-01-28T07:25:37;5.67;;;3.57;;
14251;SDS011;7210;51.502;10.722;2023-01-28T07:28:11;4.47;;;3.23;;
14251;SDS011;7210;51.502;10.722;2023-01-28T07:30:48;3.00;;;2.80;;
14251;SDS011;7210;51.502;10.722;2023-01-28T07:33:24;7.80;;;3.10;;
14251;SDS011;7210;51.502;10.722;2023-01-28T07:36:02;3.10;;;2.80;;
14251;SDS011;7210;51.502;10.722;2023-01-28T07:38:33;5.00;;;2.73;;
14251;SDS011;7210;51.502;10.722;2023-01-28T07:41:09;3.23;;;2.90;;
14251;SDS011;7210;51.502;10.722;2023-01-28T07:43:38;3.20;;;2.90;;
14251;SDS011;7210;51.502;10.722;2023-01-28T07:46:06;5.27;;;2.90;;
14251;SDS011;7210;51.502;10.722;2023-01-28T07:48:38;7.93;;;6.07;;
14251;SDS011;7210;51.502;10.722;2023-01-28T07:51:05;9.03;;;5.63;;
14251;SDS011;7210;51.502;10.722;2023-01-28T07:53:33;7.23;;;5.57;;
14251;SDS011;7210;51.502;10.722;2023-01-28T07:56:00;5.90;;;5.37;;
14251;SDS011;7210;51.502;10.722;2023-01-28T07:58:29;6.00;;;5.00;;
14251;SDS011;7210;51.502;10.722;2023-01-28T08:00:59;4.20;;;3.80;;
14251;SDS011;7210;51.502;10.722;2023-01-28T08:03:28;4.47;;;3.73;;
14251;SDS011;7210;51.502;10.722;2023-01-28T08:05:58;6.07;;;3.77;;
14251;SDS011;7210;51.502;10.722;2023-01-28T08:08:25;5.07;;;3.93;;
14251;SDS011;7210;51.502;10.722;2023-01-28T08:10:53;7.43;;;5.20;;
14251;SDS011;7210;51.502;10.722;2023-01-28T08:13:22;4.77;;;4.23;;
14251;SDS011;7210;51.502;10.722;2023-01-28T08:15:53;4.43;;;4.00;;
14251;SDS011;7210;51.502;10.722;2023-01-28T08:18:21;6.87;;;4.93;;
14251;SDS011;7210;51.502;10.722;2023-01-28T08:20:48;4.73;;;4.10;;
14251;SDS011;7210;51.502;10.722;2023-01-28T08:23:22;9.43;;;6.00;;
14251;SDS011;7210;51.502;10.722;2023-01-28T08:25:52;6.70;;;6.00;;
14251;SDS011;7210;51.502;10.722;2023-01-28T08:28:20;7.27;;;6.20;;
14251;SDS011;7210;51.502;10.722;2023-01-28T08:30:47;6.07;;;5.00;;
14251;SDS011;7210;51.502;10.722;2023-01-28T08:33:15;7.33;;;5.33;;
14251;SDS011;7210;51.502;10.722;2023-01-28T08:35:44;6.33;;;4.57;;
14251;SDS011;7210;51.502;10.722;2023-01-28T08:38:16;5.63;;;5.13;;
14251;SDS011;7210;51.502;10.722;2023-01-28T08:40:46;7.10;;;5.50;;
14251;SDS011;7210;51.502;10.722;2023-01-28T08:43:15;6.20;;;5.67;;
14251;SDS011;7210;51.502;10.722;2023-01-28T08:45:42;7.77;;;6.77;;
14251;SDS011;7210;51.502;10.722;2023-01-28T08:48:11;20.93;;;13.67;;
14251;SDS011;7210;51.502;10.722;2023-01-28T08:50:42;22.60;;;15.43;;
14251;SDS011;7210;51.502;10.722;2023-01-28T08:53:10;28.13;;;18.83;;
14251;SDS011;7210;51.502;10.722;2023-01-28T08:55:40;15.23;;;13.50;;
14251;SDS011;7210;51.502;10.722;2023-01-28T08:58:10;12.80;;;11.60;;
14251;SDS011;7210;51.502;10.722;2023-01-28T09:00:40;11.40;;;9.23;;
14251;SDS011;7210;51.502;10.722;2023-01-28T09:03:08;9.37;;;7.83;;
14251;SDS011;7210;51.502;10.722;2023-01-28T09:05:36;7.37;;;6.67;;
14251;SDS011;7210;51.502;10.722;2023-01-28T09:08:11;8.67;;;6.57;;
14251;SDS011;7210;51.502;10.722;2023-01-28T09:10:43;8.17;;;7.20;;
14251;SDS011;7210;51.502;10.722;2023-01-28T09:13:26;7.77;;;6.23;;
14251;SDS011;7210;51.502;10.722;2023-01-28T09:15:54;24.33;;;16.43;;
14251;SDS011;7210;51.502;10.722;2023-01-28T09:18:21;47.60;;;29.57;;
14251;SDS011;7210;51.502;10.722;2023-01-28T09:20:49;46.97;;;23.37;;
14251;SDS011;7210;51.502;10.722;2023-01-28T09:23:16;49.03;;;27.47;;
14251;SDS011;7210;51.502;10.722;2023-01-28T09:25:47;82.83;;;51.00;;
14251;SDS011;7210;51.502;10.722;2023-01-28T09:28:14;77.77;;;48.03;;
14251;SDS011;7210;51.502;10.722;2023-01-28T09:30:43;56.87;;;37.13;;
14251;SDS011;7210;51.502;10.722;2023-01-28T09:33:10;49.10;;;33.43;;
14251;SDS011;7210;51.502;10.722;2023-01-28T09:35:37;44.87;;;32.80;;
14251;SDS011;7210;51.502;10.722;2023-01-28T09:38:04;27.97;;;23.17;;
14251;SDS011;7210;51.502;10.722;2023-01-28T09:40:33;22.53;;;13.43;;
14251;SDS011;7210;51.502;10.722;2023-01-28T09:43:07;10.33;;;8.40;;
14251;SDS011;7210;51.502;10.722;2023-01-28T09:46:01;8.37;;;6.00;;
14251;SDS011;7210;51.502;10.722;2023-01-28T09:48:35;7.97;;;5.93;;
14251;SDS011;7210;51.502;10.722;2023-01-28T09:51:09;10.63;;;7.37;;
14251;SDS011;7210;51.502;10.722;2023-01-28T09:53:48;9.45;;;7.03;;
14251;SDS011;7210;51.502;10.722;2023-01-28T09:56:21;15.33;;;9.57;;
14251;SDS011;7210;51.502;10.722;2023-01-28T09:58:54;8.43;;;7.57;;
14251;SDS011;7210;51.502;10.722;2023-01-28T10:01:32;11.13;;;8.07;;
14251;SDS011;7210;51.502;10.722;2023-01-28T10:04:11;12.27;;;10.90;;
14251;SDS011;7210;51.502;10.722;2023-01-28T10:07:01;13.90;;;9.80;;
14251;SDS011;7210;51.502;10.722;2023-01-28T10:09:51;7.57;;;6.83;;
14251;SDS011;7210;51.502;10.722;2023-01-28T10:12:30;9.07;;;6.70;;
14251;SDS011;7210;51.502;10.722;2023-01-28T10:15:44;7.93;;;5.17;;
14251;SDS011;7210;51.502;10.722;2023-01-28T10:18:28;22.00;;;14.33;;
14251;SDS011;7210;51.502;10.722;2023-01-28T10:21:01;8.87;;;7.33;;
14251;SDS011;7210;51.502;10.722;2023-01-28T10:23:40;28.57;;;17.50;;
14251;SDS011;7210;51.502;10.722;2023-01-28T10:26:22;12.77;;;9.07;;
14251;SDS011;7210;51.502;10.722;2023-01-28T10:28:54;27.73;;;18.97;;
14251;SDS011;7210;51.502;10.722;2023-01-28T10:31:28;10.33;;;7.67;;
14251;SDS011;7210;51.502;10.722;2023-01-28T10:34:04;8.60;;;7.10;;
14251;SDS011;7210;51.502;10.722;2023-01-28T10:36:31;6.77;;;5.40;;
14251;SDS011;7210;51.502;10.722;2023-01-28T10:38:59;14.83;;;10.73;;
14251;SDS011;7210;51.502;10.722;2023-01-28T10:41:26;6.70;;;5.90;;
14251;SDS011;7210;51.502;10.722;2023-01-28T10:43:53;7.70;;;5.37;;
14251;SDS011;7210;51.502;10.722;2023-01-28T10:46:25;5.10;;;4.60;;
14251;SDS011;7210;51.502;10.722;2023-01-28T10:49:01;5.20;;;4.70;;
14251;SDS011;7210;51.502;10.722;2023-01-28T10:51:41;5.30;;;4.17;;
14251;SDS011;7210;51.502;10.722;2023-01-28T10:54:19;5.27;;;4.30;;
14251;SDS011;7210;51.502;10.722;2023-01-28T10:56:48;4.50;;;4.10;;
14251;SDS011;7210;51.502;10.722;2023-01-28T10:59:19;4.50;;;3.93;;
14251;SDS011;7210;51.502;10.722;2023-01-28T11:01:53;4.30;;;3.60;;
14251;SDS011;7210;51.502;10.722;2023-01-28T11:04:25;5.17;;;3.83;;
14251;SDS011;7210;51.502;10.722;2023-01-28T11:06:55;4.53;;;4.13;;
14251;SDS011;7210;51.502;10.722;2023-01-28T11:09:26;8.47;;;7.60;;
14251;SDS011;7210;51.502;10.722;2023-01-28T11:11:56;7.50;;;4.57;;
14251;SDS011;7210;51.502;10.722;2023-01-28T11:14:25;5.73;;;4.50;;
14251;SDS011;7210;51.502;10.722;2023-01-28T11:16:58;6.23;;;4.00;;
14251;SDS011;7210;51.502;10.722;2023-01-28T11:19:30;6.37;;;5.47;;
14251;SDS011;7210;51.502;10.722;2023-01-28T11:22:02;6.83;;;4.03;;
14251;SDS011;7210;51.502;10.722;2023-01-28T11:24:34;20.10;;;3.83;;
14251;SDS011;7210;51.502;10.722;2023-01-28T11:27:08;4.23;;;3.53;;
14251;SDS011;7210;51.502;10.722;2023-01-28T11:29:43;3.33;;;2.80;;
14251;SDS011;7210;51.502;10.722;2023-01-28T11:32:24;3.37;;;2.90;;
14251;SDS011;7210;51.502;10.722;2023-01-28T11:34:54;3.63;;;2.80;;
14251;SDS011;7210;51.502;10.722;2023-01-28T11:37:29;4.20;;;3.20;;
14251;SDS011;7210;51.502;10.722;2023-01-28T11:42:47;4.83;;;3.17;;
14251;SDS011;7210;51.502;10.722;2023-01-28T11:45:17;3.03;;;2.53;;
14251;SDS011;7210;51.502;10.722;2023-01-28T11:47:55;4.33;;;2.50;;
14251;SDS011;7210;51.502;10.722;2023-01-28T11:50:55;3.30;;;2.40;;
14251;SDS011;7210;51.502;10.722;2023-01-28T11:53:35;6.27;;;3.63;;
14251;SDS011;7210;51.502;10.722;2023-01-28T11:56:30;8.90;;;5.00;;
14251;SDS011;7210;51.502;10.722;2023-01-28T11:59:18;3.57;;;3.27;;
14251;SDS011;7210;51.502;10.722;2023-01-28T12:02:08;4.03;;;2.70;;
14251;SDS011;7210;51.502;10.722;2023-01-28T12:05:06;4.63;;;3.47;;
14251;SDS011;7210;51.502;10.722;2023-01-28T12:08:03;2.93;;;2.57;;
14251;SDS011;7210;51.502;10.722;2023-01-28T12:10:57;9.27;;;7.00;;
14251;SDS011;7210;51.502;10.722;2023-01-28T12:13:48;3.80;;;2.63;;
14251;SDS011;7210;51.502;10.722;2023-01-28T12:16:40;4.43;;;2.23;;
14251;SDS011;7210;51.502;10.722;2023-01-28T12:19:44;2.67;;;2.33;;
14251;SDS011;7210;51.502;10.722;2023-01-28T12:22:42;5.30;;;4.33;;
14251;SDS011;7210;51.502;10.722;2023-01-28T12:25:57;3.80;;;2.70;;
14251;SDS011;7210;51.502;10.722;2023-01-28T12:28:38;2.73;;;2.17;;
14251;SDS011;7210;51.502;10.722;2023-01-28T12:31:41;3.77;;;2.50;;
14251;SDS011;7210;51.502;10.722;2023-01-28T12:34:32;3.40;;;2.10;;
14251;SDS011;7210;51.502;10.722;2023-01-28T12:37:36;2.60;;;2.10;;
14251;SDS011;7210;51.502;10.722;2023-01-28T12:40:32;5.03;;;3.27;;
14251;SDS011;7210;51.502;10.722;2023-01-28T12:43:17;5.87;;;4.00;;
14251;SDS011;7210;51.502;10.722;2023-01-28T12:46:08;6.40;;;4.80;;
14251;SDS011;7210;51.502;10.722;2023-01-28T12:48:50;4.33;;;3.43;;
14251;SDS011;7210;51.502;10.722;2023-01-28T12:51:28;6.30;;;4.07;;
14251;SDS011;7210;51.502;10.722;2023-01-28T12:54:14;5.23;;;4.37;;
14251;SDS011;7210;51.502;10.722;2023-01-28T12:56:50;5.37;;;3.37;;
14251;SDS011;7210;51.502;10.722;2023-01-28T12:59:22;3.63;;;3.00;;
14251;SDS011;7210;51.502;10.722;2023-01-28T13:02:02;4.37;;;2.60;;
14251;SDS011;7210;51.502;10.722;2023-01-28T13:04:50;2.63;;;2.13;;
14251;SDS011;7210;51.502;10.722;2023-01-28T13:07:29;2.17;;;1.70;;
14251;SDS011;7210;51.502;10.722;2023-01-28T13:10:10;2.80;;;1.77;;
14251;SDS011;7210;51.502;10.722;2023-01-28T13:12:48;3.43;;;1.90;;
14251;SDS011;7210;51.502;10.722;2023-01-28T13:15:35;2.83;;;1.80;;
14251;SDS011;7210;51.502;10.722;2023-01-28T13:20:59;2.50;;;1.87;;
14251;SDS011;7210;51.502;10.722;2023-01-28T13:23:37;2.20;;;1.60;;
14251;SDS011;7210;51.502;10.722;2023-01-28T13:26:25;3.90;;;2.30;;
14251;SDS011;7210;51.502;10.722;2023-01-28T13:29:08;2.73;;;1.90;;
14251;SDS011;7210;51.502;10.722;2023-01-28T13:31:46;3.73;;;1.87;;
14251;SDS011;7210;51.502;10.722;2023-01-28T13:34:27;4.57;;;1.70;;
14251;SDS011;7210;51.502;10.722;2023-01-28T13:37:02;3.50;;;2.07;;
14251;SDS011;7210;51.502;10.722;2023-01-28T13:39:47;3.40;;;2.33;;
14251;SDS011;7210;51.502;10.722;2023-01-28T13:42:21;5.00;;;3.37;;
14251;SDS011;7210;51.502;10.722;2023-01-28T13:44:54;3.30;;;2.40;;
14251;SDS011;7210;51.502;10.722;2023-01-28T13:47:33;5.30;;;2.90;;
14251;SDS011;7210;51.502;10.722;2023-01-28T13:50:03;7.40;;;6.57;;
14251;SDS011;7210;51.502;10.722;2023-01-28T13:52:41;6.20;;;4.30;;
14251;SDS011;7210;51.502;10.722;2023-01-28T13:55:15;3.37;;;2.40;;
14251;SDS011;7210;51.502;10.722;2023-01-28T14:05:03;5.43;;;3.17;;
14251;SDS011;7210;51.502;10.722;2023-01-28T14:08:14;3.00;;;1.90;;
14251;SDS011;7210;51.502;10.722;2023-01-28T14:11:12;2.90;;;1.80;;
14251;SDS011;7210;51.502;10.722;2023-01-28T14:14:21;2.83;;;2.13;;
14251;SDS011;7210;51.502;10.722;2023-01-28T14:17:27;4.67;;;2.47;;
14251;SDS011;7210;51.502;10.722;2023-01-28T14:23:17;3.70;;;1.40;;
14251;SDS011;7210;51.502;10.722;2023-01-28T14:26:09;2.50;;;1.80;;
14251;SDS011;7210;51.502;10.722;2023-01-28T14:28:55;2.13;;;1.67;;
14251;SDS011;7210;51.502;10.722;2023-01-28T14:31:45;2.57;;;1.97;;
14251;SDS011;7210;51.502;10.722;2023-01-28T14:34:17;4.47;;;1.87;;
14251;SDS011;7210;51.502;10.722;2023-01-28T14:36:52;4.00;;;2.00;;
14251;SDS011;7210;51.502;10.722;2023-01-28T14:39:37;2.93;;;1.67;;
14251;SDS011;7210;51.502;10.722;2023-01-28T14:42:13;28.13;;;18.87;;
14251;SDS011;7210;51.502;10.722;2023-01-28T14:44:48;4.00;;;3.00;;
14251;SDS011;7210;51.502;10.722;2023-01-28T14:47:38;5.57;;;4.57;;
14251;SDS011;7210;51.502;10.722;2023-01-28T14:50:46;2.80;;;2.47;;
14251;SDS011;7210;51.502;10.722;2023-01-28T14:54:02;4.87;;;3.27;;
14251;SDS011;7210;51.502;10.722;2023-01-28T14:57:04;3.03;;;2.60;;
14251;SDS011;7210;51.502;10.722;2023-01-28T14:59:58;3.87;;;2.40;;
14251;SDS011;7210;51.502;10.722;2023-01-28T15:02:26;2.43;;;2.23;;
14251;SDS011;7210;51.502;10.722;2023-01-28T15:05:06;3.40;;;2.40;;
14251;SDS011;7210;51.502;10.722;2023-01-28T15:07:36;4.60;;;2.47;;
14251;SDS011;7210;51.502;10.722;2023-01-28T15:10:15;4.53;;;2.40;;
14251;SDS011;7210;51.502;10.722;2023-01-28T15:12:47;3.03;;;2.60;;
14251;SDS011;7210;51.502;10.722;2023-01-28T15:15:29;2.80;;;2.60;;
14251;SDS011;7210;51.502;10.722;2023-01-28T15:18:09;3.87;;;2.70;;
14251;SDS011;7210;51.502;10.722;2023-01-28T15:20:43;3.40;;;2.80;;
14251;SDS011;7210;51.502;10.722;2023-01-28T15:23:14;3.40;;;2.30;;
14251;SDS011;7210;51.502;10.722;2023-01-28T15:25:43;3.23;;;2.47;;
14251;SDS011;7210;51.502;10.722;2023-01-28T15:28:11;4.57;;;2.67;;
14251;SDS011;7210;51.502;10.722;2023-01-28T15:30:50;8.53;;;2.53;;
14251;SDS011;7210;51.502;10.722;2023-01-28T15:33:23;3.40;;;2.27;;
14251;SDS011;7210;51.502;10.722;2023-01-28T15:35:53;4.33;;;2.33;;
14251;SDS011;7210;51.502;10.722;2023-01-28T15:38:30;3.83;;;2.57;;
14251;SDS011;7210;51.502;10.722;2023-01-28T15:40:58;2.60;;;2.40;;
14251;SDS011;7210;51.502;10.722;2023-01-28T15:43:28;4.13;;;2.50;;
14251;SDS011;7210;51.502;10.722;2023-01-28T15:45:59;3.27;;;2.23;;
14251;SDS011;7210;51.502;10.722;2023-01-28T15:48:33;3.97;;;2.67;;
14251;SDS011;7210;51.502;10.722;2023-01-28T15:51:05;3.20;;;2.50;;
14251;SDS011;7210;51.502;10.722;2023-01-28T15:53:55;2.70;;;2.50;;
14251;SDS011;7210;51.502;10.722;2023-01-28T15:56:31;3.50;;;2.60;;
14251;SDS011;7210;51.502;10.722;2023-01-28T15:59:09;6.27;;;2.80;;
14251;SDS011;7210;51.502;10.722;2023-01-28T16:02:13;4.70;;;2.50;;
14251;SDS011;7210;51.502;10.722;2023-01-28T16:05:02;4.43;;;2.47;;
14251;SDS011;7210;51.502;10.722;2023-01-28T16:07:42;3.23;;;2.40;;
14251;SDS011;7210;51.502;10.722;2023-01-28T16:10:18;4.43;;;2.70;;
14251;SDS011;7210;51.502;10.722;2023-01-28T16:12:49;4.37;;;2.80;;
14251;SDS011;7210;51.502;10.722;2023-01-28T16:15:18;4.23;;;3.10;;
14251;SDS011;7210;51.502;10.722;2023-01-28T16:17:47;4.13;;;2.77;;
14251;SDS011;7210;51.502;10.722;2023-01-28T16:20:19;5.43;;;3.53;;
14251;SDS011;7210;51.502;10.722;2023-01-28T16:22:49;3.33;;;2.97;;